createdAt,value
2018-09-20T00:00:18.554Z,93.90
2018-09-20T00:05:22.522Z,93.60
2018-09-20T00:10:26.111Z,94.20
2018-09-20T00:15:29.666Z,94.00
2018-09-20T00:20:34.284Z,93.80
2018-09-20T00:25:37.784Z,93.70
2018-09-20T00:30:41.310Z,93.40
2018-09-20T00:35:44.909Z,94.00
2018-09-20T00:40:48.506Z,94.00
2018-09-20T00:45:52.052Z,93.00
2018-09-20T00:50:55.563Z,94.10
2018-09-20T00:55:59.227Z,94.20
2018-09-20T01:01:02.877Z,93.90
2018-09-20T01:06:06.476Z,94.10
2018-09-20T01:11:10.041Z,94.50
2018-09-20T01:16:14.770Z,94.50
2018-09-20T01:21:18.511Z,94.00
2018-09-20T01:26:22.147Z,93.80
2018-09-20T01:31:26.376Z,94.70
2018-09-20T01:36:29.918Z,95.30
2018-09-20T01:41:35.562Z,94.90
2018-09-20T01:46:39.176Z,94.30
2018-09-20T01:51:42.683Z,94.90
2018-09-20T01:56:47.295Z,95.10
2018-09-20T02:01:50.848Z,95.80
2018-09-20T02:06:54.479Z,95.80
2018-09-20T02:11:57.994Z,95.40
2018-09-20T02:17:01.643Z,94.80
2018-09-20T02:22:05.254Z,94.40
2018-09-20T02:27:08.798Z,94.30
2018-09-20T02:32:12.360Z,94.90
2018-09-20T02:37:16.871Z,94.50
2018-09-20T02:42:20.392Z,94.10
2018-09-20T02:47:23.987Z,95.60
2018-09-20T02:52:27.535Z,94.80
2018-09-20T02:57:31.079Z,95.00
2018-09-20T03:02:34.645Z,95.40
2018-09-20T03:07:38.407Z,95.80
2018-09-20T03:12:41.963Z,95.60
2018-09-20T03:17:45.603Z,95.30
2018-09-20T03:22:49.151Z,95.60
2018-09-20T03:27:52.685Z,95.70
2018-09-20T03:32:56.192Z,96.00
2018-09-20T03:37:59.806Z,95.80
2018-09-20T03:43:03.450Z,95.80
2018-09-20T03:48:07.082Z,94.90
2018-09-20T03:53:10.587Z,95.50
2018-09-20T03:58:14.118Z,95.20
2018-09-20T04:03:17.803Z,96.10
2018-09-20T04:08:21.606Z,94.60
2018-09-20T04:13:25.252Z,94.80
2018-09-20T04:18:28.805Z,94.80
2018-09-20T04:23:34.515Z,95.20
2018-09-20T04:28:38.109Z,95.10
2018-09-20T04:33:44.878Z,95.40
2018-09-20T04:38:48.446Z,95.20
2018-09-20T04:43:52.019Z,95.70
2018-09-20T04:48:55.807Z,95.50
2018-09-20T04:54:03.694Z,95.40
2018-09-20T04:59:07.397Z,95.40
2018-09-20T05:04:11.203Z,94.80
2018-09-20T05:09:15.574Z,95.20
2018-09-20T05:14:19.302Z,95.70
2018-09-20T05:19:22.900Z,95.10
2018-09-20T05:24:26.534Z,95.70
2018-09-20T05:29:31.181Z,96.30
2018-09-20T05:34:34.727Z,96.90
2018-09-20T05:39:38.333Z,94.80
2018-09-20T05:44:41.962Z,95.90
2018-09-20T05:49:50.642Z,96.20
2018-09-20T05:54:54.198Z,96.60
2018-09-20T05:59:57.859Z,96.90
2018-09-20T06:05:01.549Z,96.60
2018-09-20T06:10:11.746Z,96.50
2018-09-20T06:15:17.472Z,96.90
2018-09-20T06:20:21.019Z,95.30
2018-09-20T06:25:25.658Z,96.00
2018-09-20T06:30:29.270Z,96.50
2018-09-20T06:35:37.939Z,96.20
2018-09-20T06:40:41.641Z,96.30
2018-09-20T06:45:46.379Z,96.10
2018-09-20T06:50:52.038Z,96.40
2018-09-20T06:55:55.610Z,96.40
2018-09-20T07:00:59.288Z,96.30
2018-09-20T07:06:02.882Z,96.40
2018-09-20T07:11:06.691Z,95.90
2018-09-20T07:16:10.369Z,95.80
2018-09-20T07:21:14.131Z,95.40
2018-09-20T07:26:18.847Z,95.30
2018-09-20T07:31:23.483Z,95.90
2018-09-20T07:36:27.060Z,95.80
2018-09-20T07:41:30.838Z,96.30
2018-09-20T07:46:34.381Z,96.10
2018-09-20T07:51:40.166Z,96.00
2018-09-20T07:56:44.431Z,95.90
2018-09-20T08:01:49.243Z,95.20
2018-09-20T08:06:52.758Z,93.90
2018-09-20T08:11:57.653Z,92.60
2018-09-20T08:17:01.402Z,89.60
2018-09-20T08:22:05.116Z,86.80
2018-09-20T08:27:09.217Z,83.50
2018-09-20T08:32:14.946Z,82.30
2018-09-20T08:37:18.645Z,80.60
2018-09-20T08:42:22.416Z,78.90
2018-09-20T08:47:27.141Z,76.90
2018-09-20T08:52:31.309Z,76.20
2018-09-20T08:57:40.247Z,72.80
2018-09-20T09:02:44.234Z,71.60
2018-09-20T09:07:48.073Z,71.30
2018-09-20T09:12:53.020Z,68.70
2018-09-20T09:17:56.768Z,67.00
2018-09-20T09:23:01.874Z,67.50
2018-09-20T09:28:05.840Z,66.20
2018-09-20T09:33:10.621Z,64.10
2018-09-20T09:38:15.415Z,64.50
2018-09-20T09:43:19.969Z,63.50
2018-09-20T09:48:24.593Z,62.20
2018-09-20T09:53:29.355Z,61.40
2018-09-20T09:58:33.041Z,62.50
2018-09-20T10:03:37.855Z,61.00
2018-09-20T10:09:29.274Z,60.00
2018-09-20T10:14:42.450Z,59.40
2018-09-20T10:19:46.277Z,59.30
2018-09-20T10:24:49.942Z,55.60
2018-09-20T10:29:55.823Z,56.40
2018-09-20T10:35:00.767Z,56.30
2018-09-20T10:40:05.710Z,54.50
2018-09-20T10:45:09.621Z,55.20
2018-09-20T10:50:14.504Z,52.50
2018-09-20T10:55:23.884Z,53.20
2018-09-20T11:00:27.782Z,54.10
2018-09-20T11:05:34.043Z,54.70
2018-09-20T11:10:38.766Z,54.90
2018-09-20T11:15:42.632Z,57.00
2018-09-20T11:20:46.443Z,58.80
2018-09-20T11:25:50.356Z,59.40
2018-09-20T11:30:54.111Z,60.90
2018-09-20T11:35:58.064Z,60.00
2018-09-20T11:41:02.902Z,60.20
2018-09-20T11:46:09.707Z,60.70
2018-09-20T11:51:14.306Z,59.00
2018-09-20T11:56:19.098Z,58.60
2018-09-20T12:01:23.727Z,57.10
2018-09-20T12:06:27.384Z,59.00
2018-09-20T12:11:31.486Z,59.00
2018-09-20T12:16:36.346Z,57.80
2018-09-20T12:21:40.596Z,59.90
2018-09-20T12:26:44.737Z,58.00
2018-09-20T12:31:48.401Z,58.10
2018-09-20T12:36:52.207Z,58.60
2018-09-20T12:41:56.486Z,60.20
2018-09-20T12:47:01.950Z,58.60
2018-09-20T12:52:06.453Z,59.70
2018-09-20T12:57:12.078Z,58.80
2018-09-20T13:02:16.820Z,58.20
2018-09-20T13:07:26.248Z,58.00
2018-09-20T13:12:29.884Z,57.10
2018-09-20T13:17:35.788Z,57.00
2018-09-20T13:22:39.630Z,56.70
2018-09-20T13:27:43.363Z,56.10
2018-09-20T13:32:47.131Z,58.40
2018-09-20T13:37:52.034Z,57.60
2018-09-20T13:42:55.753Z,54.80
2018-09-20T13:48:00.459Z,55.10
2018-09-20T13:53:04.234Z,57.10
2018-09-20T13:58:07.923Z,57.60
2018-09-20T14:03:11.660Z,53.90
2018-09-20T14:08:16.366Z,51.80
2018-09-20T14:13:22.035Z,51.40
2018-09-20T14:18:25.718Z,50.80
2018-09-20T14:23:29.424Z,48.20
2018-09-20T14:28:34.096Z,51.60
2018-09-20T14:33:38.870Z,58.10
2018-09-20T14:38:42.497Z,48.70
2018-09-20T14:43:46.181Z,47.10
2018-09-20T14:48:56.505Z,48.40
2018-09-20T14:54:01.411Z,48.70
2018-09-20T14:59:06.617Z,52.40
2018-09-20T15:04:11.677Z,50.70
2018-09-20T15:09:15.278Z,47.90
2018-09-20T15:14:19.105Z,53.90
2018-09-20T15:19:24.847Z,48.70
2018-09-20T15:24:29.355Z,53.00
2018-09-20T15:29:35.027Z,52.00
2018-09-20T15:34:39.413Z,52.20
2018-09-20T15:39:50.633Z,53.30
2018-09-20T15:44:56.598Z,53.50
2018-09-20T15:50:00.779Z,53.40
2018-09-20T15:55:04.891Z,52.40
2018-09-20T16:00:08.819Z,51.90
2018-09-20T16:05:19.377Z,54.20
2018-09-20T16:10:23.090Z,53.80
2018-09-20T16:15:27.726Z,53.30
2018-09-20T16:20:32.828Z,57.50
2018-09-20T16:25:36.611Z,55.70
2018-09-20T16:32:57.046Z,63.50
2018-09-20T16:38:10.383Z,56.90
2018-09-20T16:43:14.013Z,60.40
2018-09-20T16:48:18.674Z,60.30
2018-09-20T16:53:22.470Z,61.70
2018-09-20T16:58:27.024Z,62.80
2018-09-20T17:03:30.644Z,65.80
2018-09-20T17:08:34.297Z,67.10
2018-09-20T17:13:38.078Z,66.60
2018-09-20T17:18:41.814Z,68.50
2018-09-20T17:23:45.518Z,67.20
2018-09-20T17:28:50.164Z,68.50
2018-09-20T17:33:55.909Z,67.60
2018-09-20T17:39:01.187Z,68.50
2018-09-20T17:44:06.438Z,68.70
2018-09-20T17:49:11.170Z,66.30
2018-09-20T17:54:15.189Z,66.50
2018-09-20T17:59:19.734Z,68.30
2018-09-20T18:04:23.432Z,67.30
2018-09-20T18:09:27.018Z,67.50
2018-09-20T18:14:31.757Z,69.70
2018-09-20T18:19:35.511Z,68.00
2018-09-20T18:24:39.336Z,69.30
2018-09-20T18:29:42.906Z,68.50
2018-09-20T18:34:47.858Z,70.00
2018-09-20T18:39:52.882Z,71.90
2018-09-20T18:44:56.531Z,73.10
2018-09-20T18:50:04.190Z,73.60
2018-09-20T18:55:08.926Z,74.40
2018-09-20T19:00:16.374Z,74.20
2018-09-20T19:05:21.976Z,73.40
2018-09-20T19:10:27.390Z,74.70
2018-09-20T19:15:34.975Z,74.80
2018-09-20T19:20:38.876Z,75.50
2018-09-20T19:25:42.856Z,76.60
2018-09-20T19:30:47.606Z,76.70
2018-09-20T19:35:51.299Z,77.70
2018-09-20T19:40:55.565Z,78.70
2018-09-20T19:45:59.487Z,78.80
2018-09-20T19:51:03.170Z,77.60
2018-09-20T19:56:07.089Z,78.30
2018-09-20T20:01:11.681Z,78.70
2018-09-20T20:06:18.314Z,79.30
2018-09-20T20:11:23.052Z,79.00
2018-09-20T20:16:26.735Z,79.70
2018-09-20T20:21:30.358Z,80.10
2018-09-20T20:26:35.279Z,80.40
2018-09-20T20:31:39.863Z,80.30
2018-09-20T20:36:44.595Z,82.50
2018-09-20T20:41:48.331Z,82.50
2018-09-20T20:46:52.551Z,83.70
2018-09-20T20:51:56.183Z,84.10
2018-09-20T20:57:00.091Z,83.40
2018-09-20T21:02:03.752Z,83.50
2018-09-20T21:07:07.523Z,83.30
2018-09-20T21:12:11.395Z,86.40
2018-09-20T21:17:17.230Z,84.00
2018-09-20T21:22:21.029Z,84.50
2018-09-20T21:27:25.095Z,83.60
2018-09-20T21:32:28.885Z,83.90
2018-09-20T21:37:32.607Z,85.10
2018-09-20T21:42:36.272Z,83.50
2018-09-20T21:47:51.742Z,85.60
2018-09-20T21:52:55.521Z,86.20
2018-09-20T21:58:00.233Z,86.60
2018-09-20T22:03:05.107Z,86.30
2018-09-20T22:08:08.957Z,86.60
2018-09-20T22:13:12.751Z,86.70
2018-09-20T22:18:17.410Z,86.30
2018-09-20T22:23:23.242Z,86.00
2018-09-20T22:28:29.181Z,86.70
2018-09-20T22:33:32.840Z,86.70
2018-09-20T22:38:37.090Z,86.60
2018-09-20T22:43:40.845Z,87.10
2018-09-20T22:48:44.596Z,87.50
2018-09-20T22:53:50.000Z,88.10
2018-09-20T22:58:55.033Z,88.50
2018-09-20T23:03:59.214Z,88.10
2018-09-20T23:09:02.934Z,87.90
2018-09-20T23:14:06.605Z,88.80
2018-09-20T23:19:10.304Z,88.90
2018-09-20T23:24:13.903Z,89.40
2018-09-20T23:29:17.651Z,89.90
2018-09-20T23:34:21.314Z,90.00
2018-09-20T23:39:25.521Z,90.10
2018-09-20T23:44:30.179Z,90.00
2018-09-20T23:49:34.226Z,90.40
2018-09-20T23:54:38.915Z,90.90
2018-09-20T23:59:43.586Z,90.50
